createdAt,value
2022-12-07T00:01:23.329Z,2.23
2022-12-07T00:04:27.072Z,2.12
2022-12-07T00:07:30.666Z,2.06
2022-12-07T00:10:36.229Z,1.93
2022-12-07T00:13:41.092Z,1.88
2022-12-07T00:16:46.837Z,1.83
2022-12-07T00:19:50.480Z,1.77
2022-12-07T00:22:54.084Z,1.69
2022-12-07T00:25:57.779Z,1.70
2022-12-07T00:29:04.892Z,1.67
2022-12-07T00:32:09.973Z,1.66
2022-12-07T00:35:13.818Z,1.67
2022-12-07T00:38:17.399Z,1.71
2022-12-07T00:41:23.830Z,1.75
2022-12-07T00:44:27.431Z,1.82
2022-12-07T00:47:32.387Z,1.79
2022-12-07T00:50:36.017Z,1.81
2022-12-07T00:53:41.854Z,1.84
2022-12-07T00:56:45.823Z,1.80
2022-12-07T00:59:50.344Z,1.81
2022-12-07T01:02:55.481Z,1.86
2022-12-07T01:06:00.100Z,1.88
2022-12-07T01:09:05.268Z,1.87
2022-12-07T01:12:09.051Z,1.90
2022-12-07T01:15:26.830Z,1.83
2022-12-07T01:18:35.962Z,1.84
2022-12-07T01:21:41.123Z,1.83
2022-12-07T01:24:44.830Z,1.87
2022-12-07T01:27:48.537Z,1.90
2022-12-07T01:30:59.898Z,1.87
2022-12-07T01:34:05.017Z,1.82
2022-12-07T01:37:08.653Z,1.77
2022-12-07T01:40:14.228Z,1.79
2022-12-07T01:43:28.050Z,1.73
2022-12-07T01:46:31.667Z,1.74
2022-12-07T01:49:41.118Z,1.82
2022-12-07T01:52:48.191Z,1.77
2022-12-07T01:55:55.607Z,1.79
2022-12-07T01:59:02.440Z,1.74
2022-12-07T02:02:15.638Z,1.66
2022-12-07T02:05:22.048Z,1.64
2022-12-07T02:08:26.730Z,1.66
2022-12-07T02:11:30.495Z,1.69
2022-12-07T02:14:34.121Z,1.66
2022-12-07T02:17:51.872Z,1.68
2022-12-07T02:21:08.366Z,1.69
2022-12-07T02:24:38.057Z,1.67
2022-12-07T02:27:49.565Z,1.68
2022-12-07T02:30:59.595Z,1.61
2022-12-07T02:34:14.671Z,1.51
2022-12-07T02:37:35.518Z,1.46
2022-12-07T02:40:45.975Z,1.36
2022-12-07T02:43:56.845Z,1.36
2022-12-07T02:47:09.466Z,1.37
2022-12-07T02:50:14.075Z,1.36
2022-12-07T02:53:35.641Z,1.33
2022-12-07T02:56:50.139Z,1.36
2022-12-07T03:00:07.282Z,1.41
2022-12-07T03:03:16.134Z,1.42
2022-12-07T03:06:30.011Z,1.48
2022-12-07T03:09:45.814Z,1.49
2022-12-07T03:13:04.929Z,1.50
2022-12-07T03:16:17.213Z,1.49
2022-12-07T03:19:26.050Z,1.47
2022-12-07T03:22:36.395Z,1.44
2022-12-07T03:25:46.103Z,1.41
2022-12-07T03:28:55.482Z,1.40
2022-12-07T03:32:07.353Z,1.46
2022-12-07T03:35:19.494Z,1.47
2022-12-07T03:38:31.023Z,1.45
2022-12-07T03:41:44.723Z,1.48
2022-12-07T03:44:50.071Z,1.46
2022-12-07T03:48:07.617Z,1.47
2022-12-07T03:51:23.556Z,1.48
2022-12-07T03:54:36.696Z,1.56
2022-12-07T03:57:43.552Z,1.56
2022-12-07T04:00:48.221Z,1.60
2022-12-07T04:03:51.899Z,1.65
2022-12-07T04:06:57.030Z,1.67
2022-12-07T04:10:01.188Z,1.69
2022-12-07T04:13:05.073Z,1.64
2022-12-07T04:16:09.151Z,1.64
2022-12-07T04:19:13.226Z,1.60
2022-12-07T04:22:18.229Z,1.58
2022-12-07T04:25:21.914Z,1.58
2022-12-07T04:28:25.619Z,1.54
2022-12-07T04:31:29.269Z,1.56
2022-12-07T04:34:32.907Z,1.58
2022-12-07T04:37:40.231Z,1.60
2022-12-07T04:40:43.958Z,1.61
2022-12-07T04:43:47.745Z,1.64
2022-12-07T04:46:52.458Z,1.60
2022-12-07T04:49:56.127Z,1.63
2022-12-07T04:53:01.142Z,1.63
2022-12-07T04:56:04.930Z,1.62
2022-12-07T04:59:09.771Z,1.65
2022-12-07T05:02:13.452Z,1.70
2022-12-07T05:05:17.609Z,1.65
2022-12-07T05:08:22.661Z,1.67
2022-12-07T05:11:41.560Z,1.67
2022-12-07T05:14:45.329Z,1.73
2022-12-07T05:17:48.973Z,1.60
2022-12-07T05:20:52.687Z,1.55
2022-12-07T05:23:57.885Z,1.48
2022-12-07T05:27:01.482Z,1.42
2022-12-07T05:30:06.985Z,1.38
2022-12-07T05:33:10.663Z,1.34
2022-12-07T05:36:14.745Z,1.34
2022-12-07T05:39:19.841Z,1.35
2022-12-07T05:42:23.408Z,1.33
2022-12-07T05:45:27.190Z,1.36
2022-12-07T05:48:31.035Z,1.32
2022-12-07T05:51:34.706Z,1.30
2022-12-07T05:55:09.429Z,1.24
2022-12-07T05:58:31.248Z,1.26
2022-12-07T06:01:35.518Z,1.29
2022-12-07T06:04:42.168Z,1.37
2022-12-07T06:07:45.828Z,1.34
2022-12-07T06:11:12.885Z,1.34
2022-12-07T06:14:15.774Z,1.35
2022-12-07T06:17:19.713Z,1.42
2022-12-07T06:20:23.280Z,1.36
2022-12-07T06:23:26.842Z,1.32
2022-12-07T06:26:31.841Z,1.32
2022-12-07T06:29:35.485Z,1.33
2022-12-07T06:32:39.938Z,1.32
2022-12-07T06:35:44.125Z,1.36
2022-12-07T06:38:47.693Z,1.50
2022-12-07T06:41:55.011Z,1.36
2022-12-07T06:44:58.602Z,1.30
2022-12-07T06:48:02.796Z,1.27
2022-12-07T06:51:07.194Z,1.24
2022-12-07T06:54:10.932Z,1.17
2022-12-07T06:57:15.880Z,1.18
2022-12-07T07:00:22.399Z,1.16
2022-12-07T07:03:27.251Z,1.11
2022-12-07T07:06:30.997Z,1.09
2022-12-07T07:09:34.602Z,1.10
2022-12-07T07:12:39.592Z,1.14
2022-12-07T07:15:43.637Z,1.15
2022-12-07T07:18:47.298Z,1.17
2022-12-07T07:21:50.955Z,1.17
2022-12-07T07:24:54.583Z,1.18
2022-12-07T07:28:00.797Z,1.16
2022-12-07T07:31:04.500Z,1.14
2022-12-07T07:34:09.182Z,1.19
2022-12-07T07:37:18.712Z,1.19
2022-12-07T07:40:25.784Z,1.13
2022-12-07T07:43:30.784Z,1.13
2022-12-07T07:46:34.585Z,1.14
2022-12-07T07:49:40.821Z,1.12
2022-12-07T07:52:49.037Z,1.09
2022-12-07T07:55:56.293Z,1.12
2022-12-07T07:59:01.322Z,1.11
2022-12-07T08:02:05.214Z,1.10
2022-12-07T08:05:10.210Z,1.17
2022-12-07T08:08:14.362Z,1.13
2022-12-07T08:11:18.029Z,1.16
2022-12-07T08:14:24.197Z,1.13
2022-12-07T08:17:28.351Z,1.18
2022-12-07T08:20:34.131Z,1.21
2022-12-07T08:23:40.096Z,1.26
2022-12-07T08:26:43.929Z,1.28
2022-12-07T08:29:48.883Z,1.31
2022-12-07T08:32:52.619Z,1.34
2022-12-07T08:35:56.569Z,1.36
2022-12-07T08:42:28.503Z,1.39
2022-12-07T08:45:37.270Z,1.42
2022-12-07T08:48:49.208Z,1.35
2022-12-07T08:51:53.163Z,1.35
2022-12-07T08:54:56.794Z,1.39
2022-12-07T08:58:01.294Z,1.45
2022-12-07T09:01:06.891Z,1.54
2022-12-07T09:04:12.160Z,1.57
2022-12-07T09:07:16.082Z,1.69
2022-12-07T09:10:20.873Z,1.73
2022-12-07T09:13:24.502Z,1.77
2022-12-07T09:16:29.721Z,1.84
2022-12-07T09:19:33.373Z,1.83
2022-12-07T09:22:37.067Z,1.84
2022-12-07T09:25:40.710Z,1.86
2022-12-07T09:28:44.314Z,1.92
2022-12-07T09:31:49.381Z,1.97
2022-12-07T09:34:53.043Z,1.97
2022-12-07T09:37:56.899Z,2.12
2022-12-07T09:41:07.351Z,2.19
2022-12-07T09:44:16.581Z,2.32
2022-12-07T09:47:22.139Z,2.23
2022-12-07T09:50:29.441Z,2.31
2022-12-07T09:53:39.406Z,2.32
2022-12-07T09:56:43.543Z,2.32
2022-12-07T09:59:47.387Z,2.22
2022-12-07T10:02:57.667Z,2.21
2022-12-07T10:06:01.930Z,2.27
2022-12-07T10:09:12.420Z,2.47
2022-12-07T10:12:16.045Z,2.69
2022-12-07T10:15:26.069Z,2.90
2022-12-07T10:18:34.719Z,3.09
2022-12-07T10:21:38.414Z,3.20
2022-12-07T10:24:44.161Z,2.70
2022-12-07T10:28:02.014Z,2.77
2022-12-07T10:31:21.290Z,2.65
2022-12-07T10:34:30.514Z,2.61
2022-12-07T10:37:43.561Z,2.61
2022-12-07T10:40:47.219Z,2.54
2022-12-07T10:43:54.470Z,2.57
2022-12-07T10:47:22.546Z,2.61
2022-12-07T10:51:10.958Z,2.65
2022-12-07T10:54:28.390Z,2.65
2022-12-07T10:57:49.871Z,2.76
2022-12-07T11:01:07.207Z,2.82
2022-12-07T11:04:27.225Z,2.94
2022-12-07T11:07:55.060Z,3.04
2022-12-07T11:11:11.907Z,3.15
2022-12-07T11:14:28.848Z,2.98
2022-12-07T11:17:47.974Z,3.00
2022-12-07T11:21:01.426Z,2.98
2022-12-07T11:24:16.637Z,2.90
2022-12-07T11:27:37.568Z,2.96
2022-12-07T11:30:58.506Z,2.96
2022-12-07T11:34:11.687Z,3.28
2022-12-07T11:37:21.283Z,3.15
2022-12-07T11:40:35.665Z,3.23
2022-12-07T11:43:39.607Z,3.25
2022-12-07T11:46:52.089Z,3.31
2022-12-07T11:50:05.721Z,3.32
2022-12-07T11:53:19.668Z,3.26
2022-12-07T11:56:29.470Z,3.17
2022-12-07T11:59:43.175Z,2.90
2022-12-07T12:02:55.985Z,2.58
2022-12-07T12:05:59.755Z,2.53
2022-12-07T12:17:10.198Z,2.60
2022-12-07T12:20:26.219Z,2.60
2022-12-07T12:23:43.010Z,2.60
2022-12-07T12:26:54.882Z,2.60
2022-12-07T12:30:06.033Z,2.67
2022-12-07T12:33:29.541Z,2.56
2022-12-07T12:36:49.339Z,2.53
2022-12-07T12:40:53.326Z,2.48
2022-12-07T12:43:57.193Z,2.11
2022-12-07T12:47:03.827Z,1.69
2022-12-07T12:50:20.691Z,1.42
2022-12-07T12:53:27.778Z,1.50
2022-12-07T12:56:47.516Z,1.65
2022-12-07T13:00:01.697Z,1.70
2022-12-07T13:03:12.990Z,1.76
2022-12-07T13:06:33.512Z,1.73
2022-12-07T13:09:38.406Z,1.70
2022-12-07T13:12:43.123Z,1.74
2022-12-07T13:15:52.735Z,1.76
2022-12-07T13:18:58.072Z,1.79
2022-12-07T13:22:01.918Z,1.81
2022-12-07T13:25:13.157Z,1.87
2022-12-07T13:28:20.942Z,1.86
2022-12-07T13:31:44.639Z,1.83
2022-12-07T13:34:49.756Z,1.85
2022-12-07T13:37:53.692Z,1.86
2022-12-07T13:41:06.228Z,1.88
2022-12-07T13:44:14.544Z,1.93
2022-12-07T13:47:30.512Z,1.96
2022-12-07T13:50:36.163Z,1.96
2022-12-07T13:53:50.665Z,2.02
2022-12-07T13:56:55.262Z,2.04
2022-12-07T13:59:59.940Z,2.08
2022-12-07T14:03:25.126Z,2.13
2022-12-07T14:06:30.319Z,2.14
2022-12-07T14:09:34.062Z,2.19
2022-12-07T14:12:39.475Z,2.10
2022-12-07T14:15:43.133Z,2.09
2022-12-07T14:18:47.281Z,2.08
2022-12-07T14:22:09.919Z,2.02
2022-12-07T14:25:24.126Z,2.02
2022-12-07T14:28:31.759Z,1.95
2022-12-07T14:31:35.443Z,1.87
2022-12-07T14:34:39.615Z,1.80
2022-12-07T14:37:48.005Z,1.67
2022-12-07T14:40:52.935Z,1.56
2022-12-07T14:44:21.870Z,1.43
2022-12-07T14:54:20.647Z,1.19
2022-12-07T14:57:26.299Z,1.09
2022-12-07T15:00:31.234Z,1.00
2022-12-07T15:03:35.828Z,1.00
2022-12-07T15:06:40.043Z,0.98
2022-12-07T15:09:45.258Z,0.93
2022-12-07T15:12:49.047Z,0.82
2022-12-07T15:15:55.678Z,0.75
2022-12-07T15:19:26.749Z,0.63
2022-12-07T15:22:23.166Z,0.58
2022-12-07T15:25:28.202Z,0.54
2022-12-07T15:28:32.004Z,0.49
2022-12-07T15:31:55.258Z,0.46
2022-12-07T15:35:00.697Z,0.45
2022-12-07T15:38:04.831Z,0.44
2022-12-07T15:41:09.847Z,0.41
2022-12-07T15:44:32.577Z,0.36
2022-12-07T15:51:06.691Z,0.29
2022-12-07T15:54:20.083Z,0.24
2022-12-07T15:57:25.740Z,0.26
2022-12-07T16:00:29.448Z,0.29
2022-12-07T16:03:33.295Z,0.41
2022-12-07T16:06:37.342Z,0.45
2022-12-07T16:09:41.339Z,0.48
2022-12-07T16:12:46.364Z,0.51
2022-12-07T16:15:50.884Z,0.54
2022-12-07T16:18:55.103Z,0.58
2022-12-07T16:21:59.047Z,0.54
2022-12-07T16:25:03.292Z,0.60
2022-12-07T16:28:08.954Z,0.63
2022-12-07T16:31:16.401Z,0.65
2022-12-07T16:34:20.889Z,0.68
2022-12-07T16:37:24.638Z,0.69
2022-12-07T16:40:28.663Z,0.67
2022-12-07T16:43:33.697Z,0.72
2022-12-07T16:46:38.561Z,0.73
2022-12-07T16:49:42.239Z,0.80
2022-12-07T16:52:45.888Z,0.80
2022-12-07T16:55:50.096Z,0.90
2022-12-07T16:58:55.881Z,0.88
2022-12-07T17:01:59.537Z,0.89
2022-12-07T17:05:03.881Z,0.92
2022-12-07T17:08:08.176Z,0.93
2022-12-07T17:11:17.307Z,0.90
2022-12-07T17:14:39.773Z,0.94
2022-12-07T17:17:43.461Z,0.94
2022-12-07T17:20:46.991Z,0.90
2022-12-07T17:23:50.935Z,0.87
2022-12-07T17:26:54.499Z,0.84
2022-12-07T17:29:59.635Z,0.82
2022-12-07T17:33:03.334Z,0.84
2022-12-07T17:36:13.504Z,0.89
2022-12-07T17:39:19.852Z,0.91
2022-12-07T17:42:40.175Z,0.89
2022-12-07T17:45:45.370Z,0.87
2022-12-07T17:48:48.996Z,0.79
2022-12-07T17:52:10.221Z,0.74
2022-12-07T17:55:13.980Z,0.65
2022-12-07T17:58:17.615Z,0.60
2022-12-07T18:01:24.301Z,0.61
2022-12-07T18:04:28.638Z,0.58
2022-12-07T18:07:32.327Z,0.61
2022-12-07T18:10:35.992Z,0.55
2022-12-07T18:13:39.725Z,0.54
2022-12-07T18:16:45.326Z,0.53
2022-12-07T18:19:49.324Z,0.55
2022-12-07T18:22:52.892Z,0.55
2022-12-07T18:25:56.624Z,0.52
2022-12-07T18:29:01.716Z,0.55
2022-12-07T18:32:07.168Z,0.50
2022-12-07T18:35:11.126Z,0.56
2022-12-07T18:38:15.212Z,0.60
2022-12-07T18:41:20.467Z,0.64
2022-12-07T18:44:24.307Z,0.62
2022-12-07T18:47:29.429Z,0.64
2022-12-07T18:50:33.363Z,0.64
2022-12-07T18:53:38.104Z,0.65
2022-12-07T18:56:41.710Z,0.72
2022-12-07T18:59:48.395Z,0.75
2022-12-07T19:02:54.855Z,0.75
2022-12-07T19:05:58.742Z,0.66
2022-12-07T19:09:03.326Z,0.65
2022-12-07T19:12:07.429Z,0.67
2022-12-07T19:15:14.045Z,0.76
2022-12-07T19:18:19.034Z,0.74
2022-12-07T19:21:22.668Z,0.78
2022-12-07T19:24:26.396Z,0.85
2022-12-07T19:27:32.278Z,0.80
2022-12-07T19:30:35.929Z,0.80
2022-12-07T19:33:41.673Z,0.82
2022-12-07T19:36:46.150Z,0.81
2022-12-07T19:39:51.972Z,0.82
2022-12-07T19:42:55.678Z,0.81
2022-12-07T19:46:05.830Z,0.76
2022-12-07T19:49:11.061Z,0.74
2022-12-07T19:52:52.372Z,0.70
2022-12-07T19:56:01.674Z,0.72
2022-12-07T19:59:05.600Z,0.72
2022-12-07T20:07:39.344Z,0.73
2022-12-07T20:10:43.286Z,0.72
2022-12-07T20:13:59.149Z,0.66
2022-12-07T20:17:03.467Z,0.68
2022-12-07T20:20:09.241Z,0.70
2022-12-07T20:23:14.299Z,0.69
2022-12-07T20:26:17.937Z,0.64
2022-12-07T20:29:24.853Z,0.67
2022-12-07T20:32:28.486Z,0.67
2022-12-07T20:35:45.104Z,0.67
2022-12-07T20:39:00.529Z,0.68
2022-12-07T20:42:24.062Z,0.73
2022-12-07T20:45:28.417Z,0.75
2022-12-07T20:48:32.199Z,0.78
2022-12-07T20:51:35.981Z,0.80
2022-12-07T20:54:41.220Z,0.77
2022-12-07T20:57:44.906Z,0.81
2022-12-07T21:00:48.523Z,0.81
2022-12-07T21:03:55.635Z,0.90
2022-12-07T21:06:59.457Z,0.88
2022-12-07T21:10:05.245Z,0.90
2022-12-07T21:13:08.891Z,0.88
2022-12-07T21:16:16.647Z,0.93
2022-12-07T21:19:20.596Z,0.90
2022-12-07T21:22:24.208Z,0.93
2022-12-07T21:25:29.232Z,0.94
2022-12-07T21:28:32.943Z,1.00
2022-12-07T21:31:36.782Z,0.95
2022-12-07T21:34:40.677Z,0.99
2022-12-07T21:37:44.353Z,0.98
2022-12-07T21:40:49.441Z,1.01
2022-12-07T21:43:54.086Z,1.00
2022-12-07T21:46:57.775Z,1.00
2022-12-07T21:50:01.441Z,0.99
2022-12-07T21:53:05.446Z,0.99
2022-12-07T21:56:17.398Z,1.01
2022-12-07T21:59:21.379Z,1.02
2022-12-07T22:02:25.154Z,1.01
2022-12-07T22:05:28.919Z,1.04
2022-12-07T22:08:32.647Z,1.06
2022-12-07T22:11:38.253Z,1.07
2022-12-07T22:14:59.819Z,1.12
2022-12-07T22:18:06.260Z,1.14
2022-12-07T22:21:10.003Z,1.11
2022-12-07T22:24:14.846Z,1.07
2022-12-07T22:27:20.458Z,1.08
2022-12-07T22:30:24.307Z,1.01
2022-12-07T22:33:28.010Z,1.00
2022-12-07T22:36:31.799Z,0.99
2022-12-07T22:39:35.395Z,0.97
2022-12-07T22:42:40.449Z,0.95
2022-12-07T22:45:44.138Z,0.93
2022-12-07T22:48:48.212Z,0.95
2022-12-07T22:51:52.067Z,0.93
2022-12-07T22:54:55.824Z,0.95
2022-12-07T22:58:00.862Z,0.91
2022-12-07T23:01:09.002Z,0.94
2022-12-07T23:04:12.733Z,0.95
2022-12-07T23:07:16.427Z,0.96
2022-12-07T23:10:20.575Z,0.98
2022-12-07T23:13:33.664Z,0.96
2022-12-07T23:16:37.610Z,0.93
2022-12-07T23:19:41.384Z,0.95
2022-12-07T23:22:45.146Z,0.95
2022-12-07T23:25:48.764Z,0.94
2022-12-07T23:28:53.770Z,0.94
2022-12-07T23:31:57.641Z,0.93
2022-12-07T23:35:01.635Z,0.88
2022-12-07T23:38:05.509Z,0.84
2022-12-07T23:41:11.778Z,0.80
2022-12-07T23:44:16.815Z,0.75
2022-12-07T23:47:20.418Z,0.72
2022-12-07T23:50:24.046Z,0.73
2022-12-07T23:53:29.757Z,0.67
2022-12-07T23:56:35.675Z,0.64
2022-12-07T23:59:41.194Z,0.62
